Time;durP1;ratioP1;P1;durP2;ratioP2;P2;SDS_P1;SDS_P2;PMS_P1;PMS_P2;Temp;Humidity;BMP_temperature;BMP_pressure;BME280_temperature;BME280_humidity;BME280_pressure;Samples;Min_cycle;Max_cycle;Signal;HPM_P1;HPM_P2
2022/10/01 00:01:14;;;;;;;3.92;1.50;;;8.90;99.90;;;;;;5021890;28;20037;-87
2022/10/01 00:03:41;;;;;;;3.83;1.50;;;8.40;99.90;;;;;;5027736;28;20544;-88
2022/10/01 00:06:11;;;;;;;3.88;1.52;;;8.40;99.90;;;;;;5028163;28;20068;-88
2022/10/01 00:08:39;;;;;;;2.97;1.55;;;8.40;99.90;;;;;;5022165;28;20076;-87
2022/10/01 00:11:21;;;;;;;2.88;1.30;;;9.00;99.90;;;;;;5024493;28;20113;-87
2022/10/01 00:13:53;;;;;;;2.53;1.17;;;8.70;99.90;;;;;;5021923;28;20026;-87
2022/10/01 00:16:21;;;;;;;6.47;1.40;;;8.40;99.90;;;;;;5023210;28;20076;-87
2022/10/01 00:18:47;;;;;;;4.65;1.75;;;9.10;99.90;;;;;;5027382;28;20108;-87
2022/10/01 00:21:17;;;;;;;4.60;1.38;;;8.80;99.90;;;;;;5022356;28;20080;-87
2022/10/01 00:23:44;;;;;;;2.97;1.13;;;8.40;99.90;;;;;;5026236;28;20068;-87
2022/10/01 00:26:19;;;;;;;3.08;1.35;;;8.40;99.90;;;;;;5016596;28;20022;-87
2022/10/01 00:28:47;;;;;;;2.92;1.30;;;8.40;99.90;;;;;;5023252;28;20022;-87
2022/10/01 00:31:14;;;;;;;2.88;0.90;;;8.30;99.90;;;;;;5030282;28;20555;-87
2022/10/01 00:33:41;;;;;;;3.05;1.55;;;8.30;99.90;;;;;;5024348;28;20030;-87
2022/10/01 00:36:08;;;;;;;2.83;1.02;;;8.30;99.90;;;;;;5029317;28;20022;-88
2022/10/01 00:38:35;;;;;;;5.10;1.83;;;8.30;99.90;;;;;;5019724;28;20052;-87
2022/10/01 00:41:01;;;;;;;4.55;1.23;;;8.30;99.90;;;;;;5022237;28;20030;-88
2022/10/01 00:43:32;;;;;;;2.75;1.08;;;8.30;99.90;;;;;;5028678;28;20037;-87
2022/10/01 00:46:17;;;;;;;4.05;1.48;;;8.30;99.90;;;;;;5024836;28;20091;-88
2022/10/01 00:49:08;;;;;;;3.50;1.40;;;8.30;99.90;;;;;;5025462;28;20088;-87
2022/10/01 00:51:47;;;;;;;3.58;1.60;;;8.30;99.90;;;;;;5028071;28;20109;-88
2022/10/01 00:54:35;;;;;;;3.15;1.27;;;8.30;99.90;;;;;;5020401;28;20028;-88
2022/10/01 00:57:03;;;;;;;2.70;1.13;;;8.20;99.90;;;;;;5022423;28;20445;-87
2022/10/01 00:59:29;;;;;;;5.28;1.42;;;8.20;99.90;;;;;;5020794;28;20037;-88
2022/10/01 01:01:55;;;;;;;2.97;1.35;;;8.30;99.90;;;;;;5017708;28;20038;-88
2022/10/01 01:04:24;;;;;;;2.58;1.27;;;8.30;99.90;;;;;;5023188;28;20097;-87
2022/10/01 01:06:56;;;;;;;3.45;1.20;;;8.40;99.90;;;;;;5021178;28;20041;-88
2022/10/01 01:09:26;;;;;;;;;;;8.40;99.90;;;;;;5027402;28;20022;-88
2022/10/01 01:12:27;;;;;;;3.38;1.38;;;8.30;99.90;;;;;;5026925;23;19928;-81
2022/10/01 01:15:00;;;;;;;3.30;1.42;;;8.40;99.90;;;;;;4993539;28;20032;-81
2022/10/01 01:17:58;;;;;;;3.55;1.25;;;8.40;99.90;;;;;;4987421;28;20046;-82
2022/10/01 01:20:41;;;;;;;2.15;1.00;;;8.40;99.90;;;;;;4980006;28;20080;-81
2022/10/01 01:23:17;;;;;;;2.47;1.10;;;8.40;99.90;;;;;;5003308;28;20034;-82
2022/10/01 01:26:04;;;;;;;3.38;1.30;;;8.50;99.90;;;;;;4993384;28;20034;-81
2022/10/01 01:28:39;;;;;;;3.22;1.17;;;8.50;99.90;;;;;;4985253;28;20030;-81
2022/10/01 01:31:09;;;;;;;3.40;1.45;;;8.50;99.90;;;;;;4993038;28;20085;-82
2022/10/01 01:33:37;;;;;;;2.63;1.30;;;8.50;99.90;;;;;;4991184;28;20049;-81
2022/10/01 01:36:17;;;;;;;3.92;1.33;;;8.50;99.90;;;;;;4994810;28;20082;-81
2022/10/01 01:38:48;;;;;;;3.00;1.13;;;8.50;99.90;;;;;;4985193;28;20027;-81
2022/10/01 01:41:16;;;;;;;4.75;1.65;;;8.50;99.90;;;;;;4993325;28;20394;-81
2022/10/01 01:43:46;;;;;;;4.00;1.40;;;8.50;99.90;;;;;;4995467;28;20438;-82
2022/10/01 01:46:17;;;;;;;2.67;1.10;;;8.50;99.90;;;;;;4985602;28;20118;-81
2022/10/01 01:48:46;;;;;;;3.90;1.45;;;8.40;99.90;;;;;;4986529;28;20113;-81
2022/10/01 01:51:34;;;;;;;4.75;1.50;;;8.40;99.90;;;;;;4989112;28;20034;-81
2022/10/01 01:54:01;;;;;;;2.50;1.17;;;8.40;99.90;;;;;;4989483;28;20050;-82
2022/10/01 01:56:27;;;;;;;3.10;1.55;;;8.40;99.90;;;;;;4998103;28;20019;-83
2022/10/01 01:58:56;;;;;;;4.05;1.38;;;8.50;99.90;;;;;;4990698;28;20074;-82
2022/10/01 02:01:38;;;;;;;3.28;1.30;;;8.40;99.90;;;;;;5016753;28;20031;-82
2022/10/01 02:04:18;;;;;;;2.78;1.23;;;8.40;99.90;;;;;;4990932;28;20081;-82
2022/10/01 02:07:14;;;;;;;3.17;1.02;;;8.40;99.90;;;;;;4990301;28;20023;-82
2022/10/01 02:10:10;;;;;;;2.65;1.15;;;8.40;99.90;;;;;;5011079;28;20052;-82
2022/10/01 02:12:48;;;;;;;3.67;1.48;;;8.40;99.90;;;;;;5002899;28;20090;-82
2022/10/01 02:15:34;;;;;;;2.08;1.00;;;8.40;99.90;;;;;;4996207;28;20030;-82
2022/10/01 02:18:22;;;;;;;4.60;1.23;;;8.40;99.90;;;;;;4996549;28;20108;-82
2022/10/01 02:20:55;;;;;;;3.55;1.27;;;8.40;99.90;;;;;;4990576;28;20023;-83
2022/10/01 02:23:32;;;;;;;2.85;1.20;;;8.40;99.90;;;;;;4996371;28;20372;-82
2022/10/01 02:26:09;;;;;;;3.00;1.05;;;8.40;99.90;;;;;;4992388;28;20026;-83
2022/10/01 02:28:37;;;;;;;2.92;1.20;;;8.40;99.90;;;;;;4995007;28;20046;-82
2022/10/01 02:31:03;;;;;;;2.83;1.00;;;8.40;99.90;;;;;;4993410;28;20022;-82
2022/10/01 02:33:33;;;;;;;2.58;1.08;;;8.40;99.90;;;;;;4995753;28;20022;-82
2022/10/01 02:36:00;;;;;;;2.25;0.90;;;8.40;99.90;;;;;;4996231;28;20027;-82
2022/10/01 02:38:27;;;;;;;2.10;0.90;;;8.40;99.90;;;;;;4990447;28;20109;-82
2022/10/01 02:40:57;;;;;;;3.03;1.38;;;8.40;99.90;;;;;;4988601;28;20515;-82
2022/10/01 02:43:31;;;;;;;3.45;1.30;;;8.40;99.90;;;;;;4992157;28;20077;-82
2022/10/01 02:46:04;;;;;;;2.97;1.30;;;8.40;99.90;;;;;;4990200;28;20113;-82
2022/10/01 02:48:29;;;;;;;3.63;1.02;;;8.40;99.90;;;;;;5012630;28;20019;-82
2022/10/01 02:51:14;;;;;;;3.50;1.20;;;8.40;99.90;;;;;;4989167;28;20538;-82
2022/10/01 02:53:46;;;;;;;2.47;1.00;;;8.40;99.90;;;;;;4989468;28;20069;-82
2022/10/01 02:56:13;;;;;;;3.13;0.80;;;8.40;99.90;;;;;;4993951;28;20061;-82
2022/10/01 02:58:40;;;;;;;4.50;1.35;;;8.40;99.90;;;;;;4991977;28;20038;-82
2022/10/01 03:01:06;;;;;;;2.90;0.75;;;8.40;99.90;;;;;;4988660;28;20027;-82
2022/10/01 03:03:32;;;;;;;2.40;1.08;;;8.40;99.90;;;;;;4986968;28;20041;-82
2022/10/01 03:05:57;;;;;;;2.25;1.05;;;8.50;99.90;;;;;;4988610;28;20023;-82
2022/10/01 03:08:23;;;;;;;1.40;0.70;;;8.50;99.90;;;;;;4992687;28;20023;-82
2022/10/01 03:10:49;;;;;;;2.45;0.80;;;8.50;99.90;;;;;;4991646;28;20027;-81
2022/10/01 03:13:17;;;;;;;2.55;0.90;;;8.50;99.90;;;;;;4989635;28;20027;-82
2022/10/01 03:15:45;;;;;;;3.13;1.00;;;8.50;99.90;;;;;;4990293;28;20091;-81
2022/10/01 03:18:11;;;;;;;3.55;1.40;;;8.50;99.90;;;;;;4990886;28;20103;-82
2022/10/01 03:20:37;;;;;;;2.50;1.08;;;8.50;99.90;;;;;;4989447;28;20420;-81
2022/10/01 03:23:02;;;;;;;1.83;0.68;;;8.50;99.90;;;;;;4994591;28;20031;-82
2022/10/01 03:25:28;;;;;;;2.47;0.85;;;8.40;99.90;;;;;;4988162;28;20046;-82
2022/10/01 03:27:53;;;;;;;2.10;0.82;;;8.50;99.90;;;;;;5006660;28;20286;-82
2022/10/01 03:30:19;;;;;;;8.63;1.52;;;8.40;99.90;;;;;;4994660;28;20109;-82
2022/10/01 03:32:45;;;;;;;2.65;0.90;;;8.40;99.90;;;;;;4993911;28;20033;-82
2022/10/01 03:35:11;;;;;;;2.30;0.90;;;8.40;99.90;;;;;;5010372;28;20398;-82
2022/10/01 03:37:36;;;;;;;1.73;0.70;;;8.40;99.90;;;;;;4993793;28;20026;-82
2022/10/01 03:40:03;;;;;;;2.42;0.88;;;8.40;99.90;;;;;;4995382;28;20058;-82
2022/10/01 03:42:28;;;;;;;2.28;0.85;;;8.40;99.90;;;;;;4995432;28;20027;-82
2022/10/01 03:44:54;;;;;;;2.92;1.10;;;8.40;99.90;;;;;;4995269;28;20553;-82
2022/10/01 03:47:23;;;;;;;2.65;1.00;;;8.40;99.90;;;;;;4994650;28;20026;-82
2022/10/01 03:49:48;;;;;;;2.08;0.68;;;8.40;99.90;;;;;;4994386;28;20364;-82
2022/10/01 03:52:14;;;;;;;2.33;0.88;;;8.30;99.90;;;;;;4994972;28;20077;-82
2022/10/01 03:54:39;;;;;;;3.05;0.95;;;8.40;99.90;;;;;;4997077;28;20053;-82
2022/10/01 03:57:05;;;;;;;2.78;0.80;;;8.30;99.90;;;;;;4985158;28;20097;-82
2022/10/01 03:59:31;;;;;;;1.55;0.70;;;8.40;99.90;;;;;;4990078;28;20831;-82
2022/10/01 04:01:56;;;;;;;1.95;0.70;;;8.40;99.90;;;;;;4986205;28;20026;-82
2022/10/01 04:04:22;;;;;;;1.90;0.70;;;8.30;99.90;;;;;;4992504;28;20113;-82
2022/10/01 04:06:48;;;;;;;2.55;0.80;;;8.40;99.90;;;;;;5010503;28;20022;-81
2022/10/01 04:09:13;;;;;;;1.13;0.65;;;8.30;99.90;;;;;;4993556;28;20106;-82
2022/10/01 04:11:39;;;;;;;2.58;0.80;;;8.30;99.90;;;;;;4999386;28;20045;-82
2022/10/01 04:14:04;;;;;;;2.50;0.88;;;8.30;99.90;;;;;;4996589;28;20125;-82
2022/10/01 04:16:33;;;;;;;2.55;0.70;;;8.30;99.90;;;;;;5001947;28;20030;-82
2022/10/01 04:18:59;;;;;;;1.08;0.52;;;8.30;99.90;;;;;;4997569;28;20475;-83
2022/10/01 04:21:24;;;;;;;2.63;0.70;;;8.30;99.90;;;;;;4995313;28;20041;-82
2022/10/01 04:23:51;;;;;;;1.60;0.70;;;8.20;99.90;;;;;;4994578;28;20390;-82
2022/10/01 04:26:18;;;;;;;2.40;0.70;;;8.50;99.90;;;;;;4997775;28;20054;-82
2022/10/01 04:28:45;;;;;;;0.88;0.47;;;8.30;99.90;;;;;;4999430;28;20014;-82
2022/10/01 04:31:23;;;;;;;1.83;0.55;;;8.40;99.90;;;;;;4997261;28;20018;-81
2022/10/01 04:33:49;;;;;;;1.42;0.52;;;8.40;99.90;;;;;;4999496;28;20050;-82
2022/10/01 04:36:15;;;;;;;1.63;0.50;;;8.30;99.90;;;;;;4998839;28;20022;-82
2022/10/01 04:38:40;;;;;;;1.45;0.50;;;8.30;99.90;;;;;;4992237;28;20023;-82
2022/10/01 04:41:08;;;;;;;1.77;0.50;;;8.40;99.90;;;;;;4995076;28;20470;-82
2022/10/01 04:43:33;;;;;;;1.50;0.68;;;8.40;99.90;;;;;;5010399;28;20026;-82
2022/10/01 04:45:59;;;;;;;1.70;0.60;;;8.40;99.90;;;;;;4997479;28;20022;-81
2022/10/01 04:48:24;;;;;;;0.77;0.38;;;8.50;99.90;;;;;;4990815;28;20034;-82
2022/10/01 04:50:50;;;;;;;0.65;0.20;;;8.50;99.90;;;;;;4993287;28;20054;-82
2022/10/01 04:53:16;;;;;;;1.30;0.50;;;8.50;99.90;;;;;;4992270;28;20021;-81
2022/10/01 04:55:42;;;;;;;1.50;0.50;;;8.50;99.90;;;;;;4998499;28;20034;-81
2022/10/01 04:58:08;;;;;;;1.25;0.45;;;8.50;99.90;;;;;;4997434;28;20049;-82
2022/10/01 05:00:34;;;;;;;0.40;0.20;;;8.50;99.90;;;;;;4994312;28;20551;-82
2022/10/01 05:03:00;;;;;;;1.35;0.60;;;8.50;99.90;;;;;;4998108;28;20026;-81
2022/10/01 05:05:27;;;;;;;0.52;0.30;;;8.60;99.90;;;;;;4991217;28;20027;-82
2022/10/01 05:07:53;;;;;;;0.68;0.30;;;8.60;99.90;;;;;;4998109;28;20017;-82
2022/10/01 05:10:21;;;;;;;1.17;0.52;;;8.60;99.90;;;;;;4993764;28;20078;-82
2022/10/01 05:12:50;;;;;;;0.77;0.30;;;8.60;99.90;;;;;;4994105;28;20041;-81
2022/10/01 05:15:16;;;;;;;0.75;0.30;;;8.70;99.90;;;;;;4997230;28;20026;-82
2022/10/01 05:17:42;;;;;;;1.05;0.30;;;8.70;99.90;;;;;;4996928;28;20022;-82
2022/10/01 05:20:14;;;;;;;1.13;0.40;;;8.70;99.90;;;;;;5007032;28;20041;-81
2022/10/01 05:22:40;;;;;;;0.75;0.38;;;8.80;99.90;;;;;;5002133;28;20022;-82
2022/10/01 05:25:06;;;;;;;1.75;0.43;;;8.80;99.90;;;;;;5000194;28;20066;-82
2022/10/01 05:27:36;;;;;;;1.13;0.40;;;8.80;99.90;;;;;;4995606;28;20118;-82
2022/10/01 05:30:07;;;;;;;0.95;0.30;;;8.70;99.90;;;;;;4993091;28;20050;-82
2022/10/01 05:32:33;;;;;;;0.90;0.32;;;8.90;99.90;;;;;;4995485;28;20548;-82
2022/10/01 05:34:59;;;;;;;0.88;0.30;;;8.80;99.90;;;;;;4994710;28;20049;-82
2022/10/01 05:37:25;;;;;;;0.47;0.22;;;8.80;99.90;;;;;;4991442;28;20026;-82
2022/10/01 05:39:50;;;;;;;1.08;0.38;;;8.90;99.90;;;;;;4987341;28;20026;-82
2022/10/01 05:42:16;;;;;;;1.25;0.35;;;8.90;99.90;;;;;;4998123;28;20037;-82
2022/10/01 05:44:45;;;;;;;0.98;0.40;;;8.90;99.90;;;;;;4988143;28;20023;-82
2022/10/01 05:47:15;;;;;;;1.20;0.30;;;8.90;99.90;;;;;;4981424;28;20110;-82
2022/10/01 05:49:43;;;;;;;1.10;0.30;;;8.90;99.90;;;;;;4992113;28;20023;-82
2022/10/01 05:52:10;;;;;;;0.88;0.30;;;8.90;99.90;;;;;;4997827;28;20086;-82
2022/10/01 05:54:36;;;;;;;0.55;0.22;;;8.90;99.90;;;;;;4999388;28;20027;-82
2022/10/01 05:57:02;;;;;;;1.25;0.30;;;8.90;99.90;;;;;;4999153;28;20102;-82
2022/10/01 05:59:28;;;;;;;1.67;0.40;;;8.90;99.90;;;;;;4999806;28;20018;-82
2022/10/01 06:01:54;;;;;;;1.48;0.47;;;8.90;99.90;;;;;;5006809;28;20076;-81
2022/10/01 06:04:19;;;;;;;0.40;0.20;;;9.00;99.90;;;;;;4999164;28;20022;-81
2022/10/01 06:06:45;;;;;;;0.77;0.30;;;9.00;99.90;;;;;;4996012;28;20068;-82
2022/10/01 06:09:11;;;;;;;0.52;0.30;;;9.00;99.90;;;;;;4993583;28;20054;-82
2022/10/01 06:11:38;;;;;;;1.48;0.40;;;9.00;99.90;;;;;;4996177;28;20034;-82
2022/10/01 06:14:03;;;;;;;0.90;0.30;;;9.00;99.90;;;;;;4990641;28;20105;-82
2022/10/01 06:16:29;;;;;;;0.70;0.32;;;9.00;99.90;;;;;;4985921;28;20058;-82
2022/10/01 06:18:56;;;;;;;2.10;0.20;;;9.00;99.90;;;;;;4989973;28;20019;-82
2022/10/01 06:21:26;;;;;;;0.43;0.20;;;9.00;99.90;;;;;;4982025;28;20023;-82
2022/10/01 06:23:52;;;;;;;1.67;0.30;;;9.00;99.90;;;;;;4990856;28;20061;-83
2022/10/01 06:26:19;;;;;;;0.52;0.20;;;8.90;99.90;;;;;;4974092;28;20073;-83
2022/10/01 06:28:47;;;;;;;0.40;0.20;;;8.90;99.90;;;;;;4988973;28;20028;-83
2022/10/01 06:31:12;;;;;;;0.65;0.20;;;8.80;99.90;;;;;;4989258;28;20032;-83
2022/10/01 06:33:38;;;;;;;1.00;0.30;;;8.80;99.90;;;;;;4986794;28;20101;-82
2022/10/01 06:36:04;;;;;;;1.75;0.40;;;8.80;99.90;;;;;;4991091;28;20394;-82
2022/10/01 06:38:29;;;;;;;0.73;0.30;;;8.80;99.90;;;;;;4980045;28;20236;-82
2022/10/01 06:40:59;;;;;;;1.05;0.30;;;8.80;99.90;;;;;;4989086;28;20096;-83
2022/10/01 06:43:27;;;;;;;0.93;0.45;;;8.70;99.90;;;;;;4990624;28;20034;-82
2022/10/01 06:45:53;;;;;;;1.00;0.50;;;8.80;99.90;;;;;;4988046;28;20494;-83
2022/10/01 06:48:19;;;;;;;2.08;0.50;;;8.70;99.90;;;;;;4986954;28;20054;-82
2022/10/01 06:50:47;;;;;;;1.13;0.40;;;8.70;99.90;;;;;;4985194;28;20026;-83
2022/10/01 06:53:14;;;;;;;1.55;0.40;;;8.80;99.90;;;;;;4987621;28;20026;-83
2022/10/01 06:55:40;;;;;;;2.05;0.52;;;8.80;99.90;;;;;;4984180;28;20030;-82
2022/10/01 06:58:11;;;;;;;0.70;0.35;;;8.80;99.90;;;;;;4987652;28;20110;-82
2022/10/01 07:00:37;;;;;;;1.13;0.40;;;8.80;99.90;;;;;;4988030;28;20085;-82
2022/10/01 07:03:09;;;;;;;0.90;0.32;;;8.90;99.90;;;;;;4977364;28;20026;-83
2022/10/01 07:05:35;;;;;;;0.73;0.35;;;8.90;99.90;;;;;;4984443;28;20483;-83
2022/10/01 07:08:01;;;;;;;0.90;0.30;;;9.00;99.90;;;;;;4986311;28;20058;-84
2022/10/01 07:10:27;;;;;;;0.95;0.30;;;9.00;99.90;;;;;;4989196;28;20058;-84
2022/10/01 07:12:52;;;;;;;1.67;0.40;;;9.00;99.90;;;;;;5023098;23;20085;-86
2022/10/01 07:15:21;;;;;;;1.13;0.40;;;9.00;99.90;;;;;;4992899;28;20121;-87
2022/10/01 07:17:51;;;;;;;1.00;0.40;;;9.00;99.90;;;;;;4977253;28;20030;-87
2022/10/01 07:20:19;;;;;;;2.17;0.70;;;9.00;99.90;;;;;;4976698;28;20030;-87
2022/10/01 07:22:46;;;;;;;1.20;0.30;;;9.20;99.90;;;;;;4966438;28;20034;-87
2022/10/01 07:25:13;;;;;;;4.05;0.40;;;9.40;99.90;;;;;;4957352;28;20042;-86
2022/10/01 07:27:39;;;;;;;0.85;0.30;;;9.60;99.90;;;;;;4963660;28;20196;-87
2022/10/01 07:30:06;;;;;;;0.93;0.32;;;9.10;99.90;;;;;;4955134;28;20117;-86
2022/10/01 07:32:34;;;;;;;0.85;0.28;;;9.10;99.90;;;;;;4957535;28;20077;-87
2022/10/01 07:35:00;;;;;;;0.93;0.30;;;9.10;99.90;;;;;;4974766;28;20023;-87
2022/10/01 07:37:26;;;;;;;1.05;0.30;;;9.20;99.90;;;;;;4954899;28;20042;-86
2022/10/01 07:39:52;;;;;;;1.45;0.50;;;9.10;99.90;;;;;;4973997;28;20245;-86
2022/10/01 07:42:18;;;;;;;1.08;0.20;;;9.10;99.90;;;;;;4974599;28;20037;-86
2022/10/01 07:44:44;;;;;;;1.00;0.30;;;9.10;99.90;;;;;;4974709;28;20027;-87
2022/10/01 07:47:11;;;;;;;0.80;0.40;;;9.10;99.90;;;;;;4955722;28;20483;-86
2022/10/01 07:49:36;;;;;;;0.70;0.30;;;9.10;99.90;;;;;;4971998;28;20130;-86
2022/10/01 07:52:02;;;;;;;1.10;0.30;;;9.20;99.90;;;;;;4957120;28;20088;-86
2022/10/01 07:54:28;;;;;;;0.95;0.20;;;9.20;99.90;;;;;;4956811;28;20038;-86
2022/10/01 07:56:54;;;;;;;0.80;0.40;;;9.30;99.90;;;;;;4956190;28;20491;-85
2022/10/01 07:59:25;;;;;;;0.80;0.30;;;9.80;99.90;;;;;;4956025;28;20034;-86
2022/10/01 08:01:51;;;;;;;1.00;0.40;;;9.70;99.90;;;;;;4956445;28;20030;-86
2022/10/01 08:07:06;;;;;;;0.55;0.20;;;9.40;99.90;;;;;;4978060;28;20038;-87
2022/10/01 08:09:32;;;;;;;0.85;0.30;;;9.30;99.90;;;;;;4975163;28;20510;-86
2022/10/01 08:11:58;;;;;;;1.00;0.40;;;9.20;99.90;;;;;;4956125;28;20026;-86
2022/10/01 08:14:29;;;;;;;0.93;0.30;;;9.60;99.90;;;;;;4972592;28;20399;-86
2022/10/01 08:16:55;;;;;;;1.05;0.30;;;9.80;99.90;;;;;;4957099;28;20110;-86
2022/10/01 08:19:21;;;;;;;1.00;0.43;;;9.80;99.90;;;;;;4956098;28;20030;-86
2022/10/01 08:21:52;;;;;;;1.15;0.35;;;9.40;99.90;;;;;;4966987;28;20034;-86
2022/10/01 08:24:20;;;;;;;0.70;0.10;;;9.80;99.90;;;;;;4955892;28;20027;-86
2022/10/01 08:26:52;;;;;;;0.40;0.20;;;9.40;99.90;;;;;;4972868;28;20419;-86
2022/10/01 08:29:18;;;;;;;1.13;0.20;;;9.40;99.90;;;;;;4967052;28;20078;-89
2022/10/01 08:31:48;;;;;;;0.50;0.30;;;9.90;99.90;;;;;;4954026;28;20015;-87
2022/10/01 08:34:17;;;;;;;0.50;0.20;;;9.80;99.90;;;;;;4972476;28;20081;-86
2022/10/01 08:36:44;;;;;;;3.00;0.40;;;9.40;99.90;;;;;;4953373;28;20126;-87
2022/10/01 08:39:12;;;;;;;1.23;0.40;;;9.40;99.90;;;;;;4972062;28;20034;-86
2022/10/01 08:41:48;;;;;;;0.98;0.38;;;9.40;99.90;;;;;;4970471;28;20023;-86
2022/10/01 08:44:27;;;;;;;0.47;0.20;;;9.40;99.90;;;;;;4955320;28;20025;-86
2022/10/01 08:47:36;;;;;;;1.05;0.30;;;9.30;99.90;;;;;;4955953;28;20035;-87
2022/10/01 08:50:10;;;;;;;0.65;0.22;;;9.40;99.90;;;;;;4945565;28;20451;-86
2022/10/01 08:52:46;;;;;;;0.63;0.20;;;9.40;99.90;;;;;;4954488;28;20027;-86
2022/10/01 08:55:25;;;;;;;1.25;0.22;;;9.70;99.90;;;;;;4971936;28;20039;-87
2022/10/01 08:58:02;;;;;;;2.88;0.40;;;9.50;99.90;;;;;;4969196;28;20043;-86
2022/10/01 09:00:31;;;;;;;1.27;0.50;;;9.50;99.90;;;;;;4953377;28;20545;-85
2022/10/01 09:03:02;;;;;;;1.13;0.47;;;9.50;99.90;;;;;;4956705;28;20097;-90
2022/10/01 09:05:51;;;;;;;1.67;0.40;;;9.50;99.90;;;;;;4949229;28;20041;-87
2022/10/01 09:08:20;;;;;;;1.00;0.50;;;9.50;99.90;;;;;;4970396;28;20101;-87
2022/10/01 09:11:03;;;;;;;0.90;0.30;;;9.50;99.90;;;;;;4972034;28;20130;-87
2022/10/01 09:13:56;;;;;;;0.98;0.40;;;9.50;99.90;;;;;;4967553;28;20042;-88
2022/10/01 09:16:30;;;;;;;0.32;0.20;;;9.60;99.90;;;;;;4971477;28;20049;-87
2022/10/01 09:19:28;;;;;;;1.30;0.30;;;9.70;99.90;;;;;;4950725;28;20023;-87
2022/10/01 09:22:19;;;;;;;1.13;0.30;;;9.70;99.90;;;;;;4967949;28;20399;-87
2022/10/01 09:24:53;;;;;;;0.75;0.20;;;9.70;99.90;;;;;;4953967;28;20122;-89
2022/10/01 09:27:26;;;;;;;0.57;0.30;;;10.00;99.90;;;;;;4954205;28;20113;-88
2022/10/01 09:30:01;;;;;;;1.38;0.60;;;10.00;99.90;;;;;;4950073;28;20399;-87
2022/10/01 09:33:08;;;;;;;0.65;0.28;;;9.80;99.90;;;;;;4955510;28;20065;-86
2022/10/01 09:35:55;;;;;;;0.50;0.20;;;9.80;99.90;;;;;;4940393;28;20027;-87
2022/10/01 09:38:35;;;;;;;1.15;0.40;;;9.80;99.90;;;;;;4971552;28;20025;-87
2022/10/01 09:41:03;;;;;;;0.20;0.10;;;9.80;99.90;;;;;;4970537;28;20123;-87
2022/10/01 09:43:32;;;;;;;0.40;0.20;;;9.80;99.90;;;;;;4971503;28;20029;-87
2022/10/01 09:46:00;;;;;;;0.20;0.10;;;10.00;99.90;;;;;;4951009;28;20019;-87
2022/10/01 09:48:58;;;;;;;1.10;0.30;;;9.80;99.90;;;;;;4955593;28;20461;-87
2022/10/01 09:51:48;;;;;;;0.57;0.20;;;9.60;99.90;;;;;;4957764;28;20136;-87
2022/10/01 09:54:21;;;;;;;0.93;0.30;;;9.90;99.90;;;;;;4970056;28;20023;-88
2022/10/01 09:57:13;;;;;;;0.55;0.17;;;10.00;99.90;;;;;;4952003;28;20030;-88
2022/10/01 09:59:52;;;;;;;1.23;0.30;;;10.00;99.90;;;;;;4956985;28;20031;-88
2022/10/01 10:02:30;;;;;;;0.90;0.20;;;10.10;99.90;;;;;;4952524;28;20023;-89
2022/10/01 10:05:26;;;;;;;0.57;0.20;;;10.10;99.90;;;;;;4964814;28;20034;-88
2022/10/01 10:08:09;;;;;;;1.05;0.30;;;10.10;99.90;;;;;;4949476;28;20035;-88
2022/10/01 10:10:38;;;;;;;0.95;0.28;;;10.10;99.90;;;;;;4967524;28;20023;-88
2022/10/01 10:13:16;;;;;;;0.95;0.40;;;10.30;99.90;;;;;;4968556;28;20030;-88
2022/10/01 10:15:57;;;;;;;0.40;0.20;;;10.20;99.90;;;;;;4953265;28;20058;-87
2022/10/01 10:18:27;;;;;;;2.70;0.43;;;10.20;99.90;;;;;;4952773;28;20011;-88
2022/10/01 10:20:57;;;;;;;0.68;0.20;;;10.20;99.90;;;;;;4953661;28;20019;-88
2022/10/01 10:23:25;;;;;;;1.02;0.30;;;10.30;99.90;;;;;;4954376;28;20019;-86
2022/10/01 10:26:03;;;;;;;0.80;0.20;;;10.20;99.90;;;;;;4970828;28;20022;-88
2022/10/01 10:28:43;;;;;;;0.52;0.30;;;10.30;99.90;;;;;;4968879;28;20030;-88
2022/10/01 10:31:26;;;;;;;0.52;0.20;;;10.30;99.90;;;;;;4954508;28;20034;-88
2022/10/01 10:34:14;;;;;;;0.55;0.30;;;10.60;99.90;;;;;;4954290;28;20015;-88
2022/10/01 10:36:41;;;;;;;0.45;0.13;;;10.30;99.90;;;;;;4971816;28;20102;-89
2022/10/01 10:39:28;;;;;;;0.65;0.20;;;10.60;99.90;;;;;;4958346;28;20027;-88
2022/10/01 10:41:58;;;;;;;1.08;0.45;;;10.40;99.90;;;;;;4972245;28;20097;-88
2022/10/01 10:44:30;;;;;;;1.88;0.73;;;10.90;99.90;;;;;;4952423;28;20022;-88
2022/10/01 10:47:02;;;;;;;0.40;0.20;;;10.50;99.90;;;;;;4969884;28;20383;-88
2022/10/01 10:49:43;;;;;;;0.52;0.15;;;11.00;99.90;;;;;;4975186;28;20022;-88
2022/10/01 10:52:29;;;;;;;0.70;0.15;;;10.90;99.90;;;;;;4955299;28;20027;-88
2022/10/01 10:54:57;;;;;;;0.15;0.00;;;10.60;99.90;;;;;;4954265;28;20122;-88
2022/10/01 10:57:28;;;;;;;0.35;0.20;;;10.70;99.90;;;;;;4957838;28;20022;-89
2022/10/01 11:00:11;;;;;;;0.50;0.20;;;10.70;99.90;;;;;;4971315;28;20073;-88
2022/10/01 11:02:46;;;;;;;0.77;0.20;;;10.80;99.90;;;;;;4960555;28;20039;-85
2022/10/01 11:05:40;;;;;;;0.85;0.20;;;11.20;99.90;;;;;;4965272;28;20026;-85
2022/10/01 11:08:11;;;;;;;0.30;0.20;;;11.30;99.90;;;;;;4979807;28;20054;-85
2022/10/01 11:10:48;;;;;;;0.20;0.10;;;11.60;99.90;;;;;;4983316;28;20019;-85
2022/10/01 11:13:33;;;;;;;0.57;0.20;;;11.30;99.90;;;;;;4961449;28;20142;-85
2022/10/01 11:16:36;;;;;;;0.20;0.10;;;11.40;99.90;;;;;;4975993;28;20062;-84
2022/10/01 11:19:30;;;;;;;0.35;0.20;;;11.40;99.90;;;;;;4978718;28;20034;-85
2022/10/01 11:22:06;;;;;;;0.00;0.00;;;11.30;99.90;;;;;;4980861;28;20423;-85
2022/10/01 11:24:34;;;;;;;1.45;0.43;;;11.40;99.90;;;;;;4964385;28;20675;-86
2022/10/01 11:27:10;;;;;;;0.52;0.10;;;11.30;99.90;;;;;;4980230;28;20086;-85
2022/10/01 11:30:06;;;;;;;0.38;0.10;;;11.30;99.90;;;;;;4967967;28;20053;-85
2022/10/01 11:32:54;;;;;;;0.15;0.03;;;11.30;99.90;;;;;;4978477;28;20019;-85
2022/10/01 11:35:54;;;;;;;0.28;0.10;;;11.30;99.90;;;;;;4978545;28;20030;-85
2022/10/01 11:38:40;;;;;;;0.10;0.10;;;11.30;99.90;;;;;;4977955;28;20030;-85
2022/10/01 11:41:18;;;;;;;0.28;0.10;;;11.30;99.90;;;;;;4979171;28;20031;-86
2022/10/01 11:44:06;;;;;;;1.55;0.10;;;11.30;99.90;;;;;;4978855;28;20105;-84
2022/10/01 11:46:57;;;;;;;0.20;0.00;;;11.30;99.90;;;;;;4979474;28;20050;-85
2022/10/01 11:49:45;;;;;;;0.30;0.10;;;11.30;99.90;;;;;;4974752;28;20022;-85
2022/10/01 11:52:34;;;;;;;0.10;0.10;;;11.40;99.90;;;;;;4978181;28;20081;-86
2022/10/01 12:01:20;;;;;;;0.15;0.00;;;11.20;99.90;;;;;;4977846;28;21068;-85
2022/10/01 12:04:09;;;;;;;0.95;0.10;;;11.40;99.90;;;;;;4977779;28;20016;-85
2022/10/01 12:06:39;;;;;;;0.63;0.30;;;11.40;99.90;;;;;;4976781;28;20037;-85
2022/10/01 12:09:13;;;;;;;0.10;0.10;;;11.40;99.90;;;;;;4977363;28;20065;-85
2022/10/01 12:11:51;;;;;;;0.38;0.10;;;11.50;99.90;;;;;;4979411;28;20034;-84
2022/10/01 12:14:23;;;;;;;0.65;0.17;;;11.90;99.90;;;;;;4976907;28;20443;-85
2022/10/01 12:16:51;;;;;;;;;;;11.60;99.90;;;;;;4978116;28;20019;-84
2022/10/01 12:19:33;;;;;;;0.57;0.13;;;11.60;99.90;;;;;;4978081;28;19909;-85
2022/10/01 12:22:10;;;;;;;0.32;0.10;;;11.60;99.90;;;;;;4976112;28;20027;-85
2022/10/01 12:24:42;;;;;;;0.32;0.10;;;11.70;99.90;;;;;;4970504;28;20093;-85
2022/10/01 12:27:23;;;;;;;1.52;0.13;;;11.80;99.90;;;;;;4969175;28;20106;-85
2022/10/01 12:30:08;;;;;;;0.00;0.00;;;12.00;99.90;;;;;;4968570;28;20515;-85
2022/10/01 12:32:52;;;;;;;0.10;0.00;;;12.20;99.90;;;;;;4954314;28;20026;-84
2022/10/01 12:35:46;;;;;;;0.38;0.10;;;12.30;99.90;;;;;;4973673;28;20035;-84
2022/10/01 12:38:37;;;;;;;2.25;0.00;;;12.50;99.90;;;;;;4982145;28;20027;-84
2022/10/01 12:41:25;;;;;;;0.40;0.20;;;12.50;99.90;;;;;;4980643;28;20141;-83
2022/10/01 12:44:12;;;;;;;0.00;0.00;;;12.60;99.90;;;;;;4980078;28;20091;-83
2022/10/01 12:47:04;;;;;;;0.25;0.10;;;12.60;99.90;;;;;;4980655;28;20125;-84
2022/10/01 12:49:51;;;;;;;0.20;0.03;;;12.60;99.90;;;;;;4977717;28;20038;-84
2022/10/01 12:52:32;;;;;;;0.10;0.05;;;12.60;99.90;;;;;;4976207;28;20035;-84
2022/10/01 12:55:19;;;;;;;0.47;0.13;;;12.70;99.90;;;;;;4978273;28;20019;-83
2022/10/01 12:58:23;;;;;;;0.30;0.10;;;12.70;99.90;;;;;;4978063;28;20042;-83
2022/10/01 13:01:18;;;;;;;2.15;0.75;;;12.70;99.90;;;;;;4974123;28;20031;-84
2022/10/01 13:04:16;;;;;;;0.90;0.17;;;12.80;99.90;;;;;;4979185;28;20026;-83
2022/10/01 13:06:50;;;;;;;0.20;0.00;;;13.00;99.90;;;;;;4978189;28;20019;-84
2022/10/01 13:09:38;;;;;;;0.77;0.10;;;13.00;99.90;;;;;;4976435;28;20015;-84
2022/10/01 13:12:25;;;;;;;0.80;0.13;;;13.20;99.90;;;;;;4979889;28;20034;-84
2022/10/01 13:14:52;;;;;;;0.30;0.08;;;13.40;99.90;;;;;;4952836;28;20038;-84
2022/10/01 13:17:41;;;;;;;0.22;0.20;;;13.50;99.90;;;;;;4977304;28;20433;-84
2022/10/01 13:20:22;;;;;;;0.63;0.10;;;13.50;99.90;;;;;;4980317;28;20023;-84
2022/10/01 13:23:11;;;;;;;2.72;0.52;;;13.70;99.90;;;;;;4977918;28;20018;-84
2022/10/01 13:25:55;;;;;;;0.05;0.00;;;13.60;99.90;;;;;;4976856;28;20042;-84
2022/10/01 13:28:27;;;;;;;0.28;0.10;;;13.60;99.90;;;;;;4979363;28;20027;-84
2022/10/01 13:30:58;;;;;;;0.63;0.10;;;13.60;99.90;;;;;;4980069;28;20746;-84
2022/10/01 13:33:27;;;;;;;0.17;0.10;;;13.60;99.90;;;;;;4979350;28;20468;-83
2022/10/01 13:35:57;;;;;;;0.30;0.10;;;13.70;99.90;;;;;;4962037;28;20456;-84